Time;durP1;ratioP1;P1;durP2;ratioP2;P2;SDS_P1;SDS_P2;PMS_P1;PMS_P2;Temp;Humidity;BMP_temperature;BMP_pressure;BME280_temperature;BME280_humidity;BME280_pressure;Samples;Min_cycle;Max_cycle;Signal;HPM_P1;HPM_P2
2023/04/10 00:00:31;;;;;;;16.08;10.95;;;;;;;5.67;100.00;102134.34;5112849;28;20109;-72
2023/04/10 00:03:00;;;;;;;19.48;12.57;;;;;;;5.74;100.00;102125.19;5113736;28;20040;-74
2023/04/10 00:05:26;;;;;;;22.33;12.13;;;;;;;5.85;100.00;102115.88;5118161;28;20035;-74
2023/04/10 00:07:52;;;;;;;15.63;11.07;;;;;;;5.89;100.00;102120.94;5117049;28;20039;-74
2023/04/10 00:10:18;;;;;;;19.48;11.57;;;;;;;5.90;100.00;102111.25;5117565;28;20032;-72
2023/04/10 00:12:44;;;;;;;16.70;10.80;;;;;;;5.89;100.00;102109.53;5117682;28;20469;-72
2023/04/10 00:15:09;;;;;;;14.32;10.80;;;;;;;5.87;100.00;102106.97;5099424;28;20461;-74
2023/04/10 00:17:35;;;;;;;15.55;10.25;;;;;;;5.85;100.00;102108.81;5098981;28;20401;-74
2023/04/10 00:20:01;;;;;;;15.05;10.75;;;;;;;5.83;100.00;102102.75;5117050;28;20046;-74
2023/04/10 00:22:26;;;;;;;17.83;11.73;;;;;;;5.83;100.00;102100.97;5098945;28;20092;-75
2023/04/10 00:24:51;;;;;;;15.93;10.75;;;;;;;5.83;100.00;102093.03;5116974;28;20035;-74
2023/04/10 00:27:17;;;;;;;17.17;11.77;;;;;;;5.82;100.00;102104.56;5099800;28;20038;-75
2023/04/10 00:29:42;;;;;;;17.50;11.90;;;;;;;5.84;100.00;102101.84;5117079;28;20242;-74
2023/04/10 00:32:07;;;;;;;17.63;11.00;;;;;;;5.83;100.00;102098.31;5116955;28;20032;-74
2023/04/10 00:34:33;;;;;;;20.23;11.35;;;;;;;5.81;100.00;102089.63;5116460;28;20043;-75
2023/04/10 00:36:58;;;;;;;16.77;10.90;;;;;;;5.80;100.00;102087.06;5117358;28;20133;-73
2023/04/10 00:39:24;;;;;;;17.27;11.68;;;;;;;5.77;100.00;102089.88;5116968;28;20084;-73
2023/04/10 00:41:49;;;;;;;14.68;10.27;;;;;;;5.73;100.00;102090.94;5116671;28;20394;-73
2023/04/10 00:44:14;;;;;;;15.18;11.30;;;;;;;5.68;100.00;102085.91;5116648;28;20400;-73
2023/04/10 00:46:40;;;;;;;16.58;11.23;;;;;;;5.63;100.00;102083.50;5116494;28;20031;-73
2023/04/10 00:49:06;;;;;;;18.25;11.98;;;;;;;5.58;100.00;102080.25;5116492;28;20032;-75
2023/04/10 00:51:31;;;;;;;16.80;11.02;;;;;;;5.54;100.00;102078.66;5116381;28;20034;-75
2023/04/10 00:54:00;;;;;;;15.50;11.05;;;;;;;5.48;100.00;102068.41;5116509;28;20034;-75
2023/04/10 00:56:25;;;;;;;19.33;12.25;;;;;;;5.45;100.00;102060.66;5116512;28;20039;-73
2023/04/10 00:58:51;;;;;;;20.77;12.18;;;;;;;5.39;100.00;102056.53;5116361;28;20142;-74
2023/04/10 01:01:16;;;;;;;18.58;12.10;;;;;;;5.32;100.00;102049.84;5115717;28;20534;-74
2023/04/10 01:03:43;;;;;;;19.92;12.23;;;;;;;5.26;100.00;102044.88;5116190;28;20034;-73
2023/04/10 01:06:33;;;;;;;18.73;12.05;;;;;;;5.18;100.00;102039.09;5116058;28;20542;-73
2023/04/10 01:09:05;;;;;;;20.48;12.15;;;;;;;5.12;100.00;102042.91;5116244;28;20024;-74
2023/04/10 01:11:55;;;;;;;17.75;11.35;;;;;;;5.04;100.00;102037.13;5116692;28;20077;-73
2023/04/10 01:14:29;;;;;;;19.85;11.63;;;;;;;4.98;100.00;102027.72;5076515;28;20044;-73
2023/04/10 01:17:11;;;;;;;16.30;11.18;;;;;;;4.91;100.00;102026.28;5116282;28;20063;-73
2023/04/10 01:20:05;;;;;;;18.58;12.30;;;;;;;4.86;100.00;102023.88;5116417;28;20051;-73
2023/04/10 01:22:40;;;;;;;18.08;11.13;;;;;;;4.82;100.00;102024.09;5098056;28;20373;-73
2023/04/10 01:25:24;;;;;;;19.98;11.15;;;;;;;4.75;100.00;102024.41;5115930;28;20027;-74
2023/04/10 01:28:17;;;;;;;18.23;11.77;;;;;;;4.70;100.00;102020.25;5116028;28;20036;-74
2023/04/10 01:30:46;;;;;;;18.05;12.48;;;;;;;4.67;100.00;102010.75;5115693;28;20043;-73
2023/04/10 01:33:15;;;;;;;19.75;12.18;;;;;;;4.65;100.00;102009.09;5116257;28;20035;-74
2023/04/10 01:35:42;;;;;;;18.77;12.07;;;;;;;4.65;100.00;102009.94;5115615;28;20032;-74
2023/04/10 01:38:10;;;;;;;16.23;11.50;;;;;;;4.65;100.00;102009.09;5097236;28;20127;-74
2023/04/10 01:40:38;;;;;;;21.08;12.73;;;;;;;4.64;100.00;102005.56;5115533;28;20027;-73
2023/04/10 01:43:06;;;;;;;17.40;11.40;;;;;;;4.66;100.00;102002.88;5097267;28;20046;-74
2023/04/10 01:45:32;;;;;;;16.75;11.43;;;;;;;4.68;100.00;102001.88;5115656;28;20034;-74
2023/04/10 01:47:58;;;;;;;17.92;11.30;;;;;;;4.69;100.00;101998.31;5115501;28;20379;-74
2023/04/10 01:50:27;;;;;;;19.50;11.20;;;;;;;4.70;100.00;101992.13;5097251;28;20032;-74
2023/04/10 01:52:53;;;;;;;17.55;10.55;;;;;;;4.71;100.00;101996.47;5115548;28;20031;-74
2023/04/10 01:55:20;;;;;;;15.60;10.70;;;;;;;4.71;100.00;101995.63;5097171;28;20096;-73
2023/04/10 01:57:47;;;;;;;18.58;11.07;;;;;;;4.73;100.00;101999.91;5115404;28;20107;-74
2023/04/10 02:00:15;;;;;;;14.88;10.23;;;;;;;4.73;100.00;101996.38;5115174;28;20072;-73
2023/04/10 02:02:41;;;;;;;17.58;10.63;;;;;;;4.71;100.00;101991.19;5115287;28;20027;-74
2023/04/10 02:05:09;;;;;;;17.08;10.30;;;;;;;4.71;100.00;101999.09;5097379;28;20027;-73
2023/04/10 02:07:56;;;;;;;16.52;11.02;;;;;;;4.71;100.00;101990.34;5115135;28;20084;-74
2023/04/10 02:10:36;;;;;;;19.27;11.18;;;;;;;4.76;100.00;102002.38;5115339;28;20031;-73
2023/04/10 02:13:06;;;;;;;15.65;10.60;;;;;;;4.82;100.00;101997.72;5114989;28;20030;-74
2023/04/10 02:15:33;;;;;;;16.15;10.82;;;;;;;4.85;100.00;101997.59;5115254;28;20030;-73
2023/04/10 02:18:03;;;;;;;16.35;10.73;;;;;;;4.89;100.00;101994.72;5114802;28;20043;-73
2023/04/10 02:20:29;;;;;;;19.65;11.25;;;;;;;4.94;100.00;101992.72;5114764;28;20042;-74
2023/04/10 02:22:58;;;;;;;16.40;10.43;;;;;;;5.03;100.00;101993.19;5115282;28;20112;-73
2023/04/10 02:25:23;;;;;;;14.05;9.73;;;;;;;5.06;100.00;101995.69;5097032;28;20053;-73
2023/04/10 02:27:49;;;;;;;15.90;10.23;;;;;;;5.05;100.00;101994.00;5113645;28;20098;-73
2023/04/10 02:30:15;;;;;;;14.40;10.30;;;;;;;5.02;100.00;101996.78;5114680;28;20458;-74
2023/04/10 02:32:40;;;;;;;13.07;9.82;;;;;;;4.99;100.00;102002.22;5115029;28;20073;-73
2023/04/10 02:35:06;;;;;;;14.02;9.27;;;;;;;4.97;100.00;102007.56;5096338;28;20488;-73
2023/04/10 02:37:32;;;;;;;14.50;10.13;;;;;;;4.94;100.00;101999.78;5114590;28;20028;-73
2023/04/10 02:39:57;;;;;;;15.82;10.57;;;;;;;4.91;100.00;101997.28;5114868;28;20490;-73
2023/04/10 02:42:23;;;;;;;15.60;10.63;;;;;;;4.87;100.00;102004.50;5114679;28;20081;-73
2023/04/10 02:44:48;;;;;;;15.10;9.93;;;;;;;4.85;100.00;102006.38;5114438;28;20034;-73
2023/04/10 02:47:14;;;;;;;15.88;10.43;;;;;;;4.83;100.00;102002.94;5096207;28;20028;-73
2023/04/10 02:49:40;;;;;;;15.65;10.88;;;;;;;4.89;100.00;102007.06;5114296;28;20073;-73
2023/04/10 02:52:05;;;;;;;14.82;10.35;;;;;;;5.00;100.00;102001.25;5114016;28;20139;-74
2023/04/10 02:54:31;;;;;;;20.02;11.35;;;;;;;5.12;100.00;102001.53;5114142;28;20076;-74
2023/04/10 02:56:57;;;;;;;16.25;11.45;;;;;;;5.19;100.00;101994.16;5114146;28;20032;-74
2023/04/10 02:59:23;;;;;;;15.23;10.30;;;;;;;5.25;100.00;101999.13;5114469;28;20023;-74
2023/04/10 03:01:49;;;;;;;16.10;10.68;;;;;;;5.31;100.00;101997.97;5095986;28;20039;-75
2023/04/10 03:04:14;;;;;;;16.08;10.32;;;;;;;5.35;100.00;101998.69;5114691;28;20032;-74
2023/04/10 03:06:40;;;;;;;17.65;10.90;;;;;;;5.38;100.00;101987.97;5114011;28;20043;-74
2023/04/10 03:09:06;;;;;;;16.10;11.43;;;;;;;5.45;100.00;101987.59;5113917;28;20156;-74
2023/04/10 03:11:31;;;;;;;15.50;11.13;;;;;;;5.51;100.00;101983.78;5114075;28;20039;-74
2023/04/10 03:13:59;;;;;;;13.65;10.00;;;;;;;5.60;100.00;101982.47;5113901;28;20023;-74
2023/04/10 03:16:25;;;;;;;16.33;11.13;;;;;;;5.63;100.00;101985.78;5114363;28;20073;-74
2023/04/10 03:18:51;;;;;;;18.52;11.90;;;;;;;5.64;100.00;101984.00;5114319;28;20051;-75
2023/04/10 03:21:17;;;;;;;14.57;10.80;;;;;;;5.69;100.00;101981.97;5113693;28;20023;-74
2023/04/10 03:23:42;;;;;;;14.73;11.02;;;;;;;5.72;100.00;101971.25;5114310;28;20070;-73
2023/04/10 03:26:08;;;;;;;18.42;10.85;;;;;;;5.74;100.00;101971.19;5114140;28;20038;-73
2023/04/10 03:28:35;;;;;;;16.60;9.52;;;;;;;5.76;100.00;101964.03;5113928;28;20093;-73
2023/04/10 03:31:01;;;;;;;16.75;10.70;;;;;;;5.80;100.00;101965.56;5113855;28;20036;-74
2023/04/10 03:33:27;;;;;;;16.15;10.57;;;;;;;5.81;100.00;101959.38;5113450;28;20035;-73
2023/04/10 03:35:52;;;;;;;15.68;10.80;;;;;;;5.84;100.00;101953.91;5095395;28;20358;-74
2023/04/10 03:38:18;;;;;;;13.43;9.57;;;;;;;5.89;100.00;101949.22;5113365;28;20069;-73
2023/04/10 03:40:43;;;;;;;14.27;9.30;;;;;;;5.92;100.00;101942.94;5095877;28;20032;-73
2023/04/10 03:43:08;;;;;;;14.65;9.98;;;;;;;5.94;100.00;101943.69;5095366;28;20070;-73
2023/04/10 03:45:34;;;;;;;15.30;9.02;;;;;;;5.99;100.00;101939.91;5095421;28;20032;-73
2023/04/10 03:47:59;;;;;;;15.73;9.52;;;;;;;6.02;100.00;101938.03;5113942;28;20050;-73
2023/04/10 03:50:24;;;;;;;18.63;9.50;;;;;;;5.99;100.00;101934.63;5113543;28;20032;-73
2023/04/10 03:52:51;;;;;;;12.45;9.18;;;;;;;6.02;100.00;101935.38;5113217;28;20032;-73
2023/04/10 03:55:19;;;;;;;14.13;9.18;;;;;;;6.04;100.00;101941.47;5113576;28;20469;-73
2023/04/10 03:57:46;;;;;;;12.43;9.00;;;;;;;6.06;100.00;101929.00;5114388;28;20034;-74
2023/04/10 04:00:15;;;;;;;12.85;8.93;;;;;;;6.06;100.00;101931.66;5095289;28;20151;-74
2023/04/10 04:02:41;;;;;;;12.02;8.98;;;;;;;6.06;100.00;101924.59;5113705;28;20069;-74
2023/04/10 04:05:07;;;;;;;12.35;8.27;;;;;;;6.10;100.00;101923.47;5113490;28;20480;-75
2023/04/10 04:07:32;;;;;;;12.75;8.63;;;;;;;6.12;100.00;101924.25;5114713;28;20381;-74
2023/04/10 04:09:59;;;;;;;11.57;8.02;;;;;;;6.15;100.00;101918.81;5113494;28;20035;-73
2023/04/10 04:12:25;;;;;;;12.73;7.95;;;;;;;6.18;100.00;101921.28;5113606;28;20465;-73
2023/04/10 04:14:50;;;;;;;12.52;7.97;;;;;;;6.20;100.00;101928.28;5113129;28;20028;-74
2023/04/10 04:17:16;;;;;;;10.07;7.60;;;;;;;6.27;100.00;101925.22;5113393;28;20107;-74
2023/04/10 04:19:41;;;;;;;11.30;7.75;;;;;;;6.34;100.00;101920.44;5113416;28;20466;-73
2023/04/10 04:22:06;;;;;;;10.43;7.55;;;;;;;6.41;100.00;101918.31;5113042;28;20055;-74
2023/04/10 04:24:32;;;;;;;10.52;7.60;;;;;;;6.50;100.00;101912.50;5095154;28;20442;-73
2023/04/10 04:26:57;;;;;;;9.57;7.47;;;;;;;6.59;100.00;101900.56;5113449;28;20035;-73
2023/04/10 04:29:23;;;;;;;12.32;7.55;;;;;;;6.63;100.00;101902.94;5112868;28;20459;-74
2023/04/10 04:31:49;;;;;;;10.55;7.55;;;;;;;6.65;100.00;101895.75;5113482;28;20024;-73
2023/04/10 04:34:15;;;;;;;10.88;7.63;;;;;;;6.66;100.00;101889.53;5112917;28;20111;-74
2023/04/10 04:36:40;;;;;;;11.68;7.80;;;;;;;6.66;100.00;101892.19;5113169;28;20020;-74
2023/04/10 04:39:06;;;;;;;11.65;7.35;;;;;;;6.67;100.00;101888.59;5112784;28;20070;-74
2023/04/10 04:41:32;;;;;;;12.45;7.75;;;;;;;6.69;100.00;101889.34;5112649;28;20059;-74
2023/04/10 04:43:58;;;;;;;10.32;7.53;;;;;;;6.73;100.00;101881.25;5094830;28;20489;-74
2023/04/10 04:46:24;;;;;;;11.50;7.10;;;;;;;6.80;100.00;101885.25;5113562;28;20031;-74
2023/04/10 04:48:49;;;;;;;11.82;7.70;;;;;;;6.83;100.00;101879.78;5114962;28;20042;-74
2023/04/10 04:51:15;;;;;;;11.25;7.88;;;;;;;6.85;100.00;101872.59;5082025;28;20039;-74
2023/04/10 04:53:40;;;;;;;10.65;7.63;;;;;;;6.87;100.00;101881.31;5117003;28;20088;-74
2023/04/10 04:56:06;;;;;;;10.93;7.30;;;;;;;6.86;100.00;101877.78;5116620;28;20036;-74
2023/04/10 04:58:31;;;;;;;9.98;7.45;;;;;;;6.85;100.00;101888.47;5116637;28;20027;-74
2023/04/10 05:00:57;;;;;;;9.65;7.20;;;;;;;6.84;100.00;101886.78;5116583;28;20154;-74
2023/04/10 05:03:22;;;;;;;11.35;7.38;;;;;;;6.82;100.00;101878.06;5116596;28;20043;-74
2023/04/10 05:05:47;;;;;;;10.35;7.25;;;;;;;6.87;100.00;101881.31;5116566;28;20032;-73
2023/04/10 05:08:13;;;;;;;13.25;8.15;;;;;;;6.89;100.00;101882.91;5116600;28;20061;-74
2023/04/10 05:10:38;;;;;;;11.15;7.60;;;;;;;6.92;100.00;101881.03;5097940;28;20433;-73
2023/04/10 05:13:04;;;;;;;9.70;7.18;;;;;;;6.93;100.00;101874.81;5116517;28;20027;-74
2023/04/10 05:15:30;;;;;;;9.88;7.53;;;;;;;6.97;100.00;101871.00;5116541;28;20072;-73
2023/04/10 05:17:55;;;;;;;8.63;6.78;;;;;;;6.99;100.00;101879.75;5117111;28;20028;-73
2023/04/10 05:20:20;;;;;;;11.27;7.28;;;;;;;7.04;100.00;101872.38;5097746;28;20028;-74
2023/04/10 05:22:46;;;;;;;13.95;6.88;;;;;;;7.10;100.00;101876.44;5115926;28;20039;-73
2023/04/10 05:25:12;;;;;;;9.77;6.95;;;;;;;7.16;100.00;101876.06;5097362;28;20052;-74
2023/04/10 05:27:37;;;;;;;8.90;6.82;;;;;;;7.23;100.00;101867.69;5115826;28;20035;-73
2023/04/10 05:30:03;;;;;;;9.80;7.10;;;;;;;7.30;100.00;101862.00;5116008;28;20127;-73
2023/04/10 05:32:28;;;;;;;9.90;7.13;;;;;;;7.31;100.00;101866.38;5080795;28;20431;-73
2023/04/10 05:34:54;;;;;;;10.43;6.43;;;;;;;7.35;100.00;101863.44;5115850;28;20031;-73
2023/04/10 05:37:19;;;;;;;8.65;6.13;;;;;;;7.39;100.00;101858.81;5115787;28;20032;-74
2023/04/10 05:39:44;;;;;;;13.15;6.57;;;;;;;7.45;100.00;101863.75;5080419;28;20467;-73
2023/04/10 05:42:10;;;;;;;8.25;6.38;;;;;;;7.48;100.00;101852.09;5115776;28;20053;-73
2023/04/10 05:44:35;;;;;;;8.85;7.03;;;;;;;7.51;100.00;101847.47;5115820;28;20035;-73
2023/04/10 05:47:01;;;;;;;10.32;6.30;;;;;;;7.56;100.00;101850.69;5115603;28;20085;-73
2023/04/10 05:49:26;;;;;;;8.95;6.45;;;;;;;7.63;100.00;101843.22;5115262;28;20101;-73
2023/04/10 05:51:52;;;;;;;7.70;6.18;;;;;;;7.73;100.00;101839.06;5115310;28;20058;-73
2023/04/10 05:54:18;;;;;;;7.28;5.90;;;;;;;7.81;100.00;101840.34;5097236;28;20027;-73
2023/04/10 05:56:43;;;;;;;8.88;6.15;;;;;;;7.88;100.00;101846.97;5115986;28;20046;-73
2023/04/10 05:59:08;;;;;;;6.88;5.70;;;;;;;7.94;100.00;101843.91;5114949;28;20028;-73
2023/04/10 06:01:34;;;;;;;8.00;5.82;;;;;;;8.02;100.00;101846.09;5115261;28;20477;-73
2023/04/10 06:03:59;;;;;;;8.40;5.90;;;;;;;8.06;100.00;101842.28;5115418;28;20055;-74
2023/04/10 06:06:25;;;;;;;6.80;5.45;;;;;;;8.09;100.00;101835.00;5115431;28;20110;-74
2023/04/10 06:08:51;;;;;;;8.95;6.15;;;;;;;8.14;100.00;101834.72;5115050;28;20027;-74
2023/04/10 06:11:17;;;;;;;6.75;5.72;;;;;;;8.20;100.00;101836.13;5114799;28;20069;-74
2023/04/10 06:13:42;;;;;;;9.30;5.93;;;;;;;8.23;100.00;101830.63;5115064;28;20438;-74
2023/04/10 06:16:08;;;;;;;8.10;5.72;;;;;;;8.26;100.00;101825.13;5115778;28;20433;-73
2023/04/10 06:18:33;;;;;;;7.57;5.97;;;;;;;8.27;100.00;101818.84;5096958;28;20032;-73
2023/04/10 06:21:00;;;;;;;9.55;6.63;;;;;;;8.30;100.00;101821.31;5097264;28;20072;-74
2023/04/10 06:23:27;;;;;;;8.55;5.78;;;;;;;8.32;100.00;101807.97;5115092;28;20043;-74
2023/04/10 06:25:53;;;;;;;9.30;6.40;;;;;;;8.34;100.00;101803.41;5115188;28;20035;-73
2023/04/10 06:28:19;;;;;;;9.88;6.50;;;;;;;8.38;100.00;101797.78;5114403;28;20029;-74
2023/04/10 06:30:44;;;;;;;9.23;6.72;;;;;;;8.43;100.00;101789.53;5096252;28;20393;-74
2023/04/10 06:33:10;;;;;;;10.52;6.80;;;;;;;8.47;100.00;101793.72;5114641;28;20035;-74
2023/04/10 06:35:36;;;;;;;8.65;6.57;;;;;;;8.53;100.00;101784.50;5114471;28;20376;-74
2023/04/10 06:38:02;;;;;;;7.38;6.57;;;;;;;8.60;100.00;101788.44;5114447;28;20040;-73
2023/04/10 06:40:28;;;;;;;8.10;6.28;;;;;;;8.68;100.00;101780.81;5096398;28;20123;-73
2023/04/10 06:42:54;;;;;;;9.93;6.57;;;;;;;8.78;100.00;101781.03;5114703;28;20130;-73
2023/04/10 06:45:20;;;;;;;8.43;6.75;;;;;;;8.85;100.00;101784.94;5096348;28;20455;-73
2023/04/10 06:47:45;;;;;;;8.40;6.28;;;;;;;8.90;100.00;101782.84;5114539;28;20096;-73
2023/04/10 06:50:11;;;;;;;14.52;6.70;;;;;;;9.01;100.00;101784.75;5114170;28;20114;-73
2023/04/10 06:52:36;;;;;;;8.20;6.40;;;;;;;9.06;100.00;101782.66;5114283;28;20469;-73
2023/04/10 06:55:02;;;;;;;8.63;5.85;;;;;;;9.13;100.00;101777.75;5114451;28;20042;-73
2023/04/10 06:57:27;;;;;;;8.75;6.57;;;;;;;9.16;100.00;101777.53;5114179;28;20042;-73
2023/04/10 06:59:53;;;;;;;9.15;6.72;;;;;;;9.20;100.00;101781.69;5113955;28;20036;-73
2023/04/10 07:02:19;;;;;;;6.75;5.80;;;;;;;9.27;100.00;101763.50;5096382;28;20050;-74
2023/04/10 07:04:44;;;;;;;9.93;6.10;;;;;;;9.29;100.00;101765.09;5113661;28;20062;-73
2023/04/10 07:07:12;;;;;;;8.10;5.90;;;;;;;9.34;100.00;101763.00;5114272;28;20031;-73
2023/04/10 07:09:38;;;;;;;8.60;6.35;;;;;;;9.35;100.00;101769.13;5113815;28;20068;-73
2023/04/10 07:12:03;;;;;;;9.02;6.25;;;;;;;9.39;100.00;101770.63;5095235;28;20036;-73
2023/04/10 07:14:30;;;;;;;8.93;6.35;;;;;;;9.41;100.00;101768.69;5113129;28;20074;-73
2023/04/10 07:16:55;;;;;;;9.35;6.35;;;;;;;9.41;100.00;101757.25;5095691;28;20081;-74
2023/04/10 07:19:21;;;;;;;7.47;6.07;;;;;;;9.46;100.00;101750.63;5113860;28;20463;-74
2023/04/10 07:21:49;;;;;;;9.55;6.35;;;;;;;9.51;100.00;101740.53;5113427;28;20031;-74
2023/04/10 07:24:16;;;;;;;8.00;6.10;;;;;;;9.57;100.00;101738.38;5113830;28;20031;-74
2023/04/10 07:26:41;;;;;;;9.20;6.47;;;;;;;9.65;100.00;101725.41;5113541;28;20039;-73
2023/04/10 07:29:08;;;;;;;8.10;6.28;;;;;;;9.73;100.00;101723.00;5114033;28;20487;-72
2023/04/10 07:31:33;;;;;;;8.65;5.93;;;;;;;9.81;100.00;101727.78;5096002;28;20027;-73
2023/04/10 07:33:59;;;;;;;8.15;5.97;;;;;;;9.89;100.00;101714.78;5095400;28;20560;-74
2023/04/10 07:36:25;;;;;;;8.30;5.75;;;;;;;10.06;100.00;101716.16;5096102;28;20392;-73
2023/04/10 07:38:51;;;;;;;10.77;5.72;;;;;;;10.16;100.00;101719.00;5113776;28;20027;-73
2023/04/10 07:41:16;;;;;;;11.60;5.70;;;;;;;10.24;100.00;101720.13;5113928;28;20065;-72
2023/04/10 07:43:42;;;;;;;8.68;5.82;;;;;;;10.34;100.00;101714.97;5112911;28;20059;-73
2023/04/10 07:46:07;;;;;;;8.60;5.85;;;;;;;10.29;100.00;101709.13;5095521;28;20032;-74
2023/04/10 07:48:33;;;;;;;7.85;5.78;;;;;;;10.24;100.00;101701.50;5114000;28;20104;-73
2023/04/10 07:50:58;;;;;;;7.43;5.78;;;;;;;10.27;100.00;101694.25;5114193;28;20036;-73
2023/04/10 07:53:24;;;;;;;8.00;6.28;;;;;;;10.27;100.00;101692.47;5095206;28;20036;-73
2023/04/10 07:55:50;;;;;;;7.28;5.80;;;;;;;10.26;100.00;101687.25;5095153;28;20032;-72
2023/04/10 07:58:15;;;;;;;7.53;6.05;;;;;;;10.26;100.00;101692.56;5113508;28;20028;-74
2023/04/10 08:00:41;;;;;;;9.00;6.70;;;;;;;10.17;100.00;101689.63;5112399;28;20069;-73
2023/04/10 08:03:06;;;;;;;6.68;5.97;;;;;;;10.17;100.00;101679.00;5112981;28;20072;-73
2023/04/10 08:05:32;;;;;;;7.18;6.10;;;;;;;10.22;100.00;101675.97;5112712;28;20035;-74
2023/04/10 08:07:58;;;;;;;8.27;6.32;;;;;;;10.26;100.00;101674.78;5112638;28;20397;-72
2023/04/10 08:10:23;;;;;;;7.85;6.10;;;;;;;10.26;100.00;101664.16;5113548;28;20027;-73
2023/04/10 08:12:49;;;;;;;8.13;5.80;;;;;;;10.27;100.00;101660.53;5112960;28;20367;-73
2023/04/10 08:15:15;;;;;;;11.52;6.95;;;;;;;10.31;100.00;101666.47;5094841;28;20080;-73
2023/04/10 08:17:40;;;;;;;8.00;5.93;;;;;;;10.41;100.00;101655.03;5112568;28;20507;-73
2023/04/10 08:20:06;;;;;;;7.95;6.43;;;;;;;10.57;100.00;101645.88;5112679;28;20157;-73
2023/04/10 08:22:32;;;;;;;11.23;6.50;;;;;;;10.65;100.00;101643.44;5112442;28;20501;-73
2023/04/10 08:24:57;;;;;;;7.30;5.63;;;;;;;10.80;100.00;101644.06;5113429;28;20047;-74
2023/04/10 08:27:23;;;;;;;7.38;6.13;;;;;;;10.83;98.90;101645.63;5117021;28;20042;-73
2023/04/10 08:29:48;;;;;;;8.40;6.40;;;;;;;10.88;96.75;101643.44;5116847;28;20039;-73
2023/04/10 08:32:14;;;;;;;8.80;6.40;;;;;;;11.02;99.94;101650.38;5116801;28;20031;-72
2023/04/10 08:34:39;;;;;;;8.40;5.90;;;;;;;11.13;99.12;101644.16;5116613;28;20047;-72
2023/04/10 08:37:06;;;;;;;7.80;6.03;;;;;;;11.25;100.00;101645.84;5116822;28;20039;-73
2023/04/10 08:39:34;;;;;;;7.93;6.32;;;;;;;11.31;94.12;101625.84;5116894;28;20028;-72
2023/04/10 08:42:00;;;;;;;8.40;6.10;;;;;;;11.53;94.94;101623.13;5117251;28;20028;-73
2023/04/10 08:44:26;;;;;;;8.38;5.88;;;;;;;11.67;92.21;101619.31;5116218;28;20077;-73
2023/04/10 08:46:52;;;;;;;7.28;6.15;;;;;;;11.83;91.67;101616.22;5116950;28;20032;-74
2023/04/10 08:49:30;;;;;;;8.07;5.97;;;;;;;11.96;91.48;101614.25;5082228;28;20036;-72
2023/04/10 08:51:57;;;;;;;8.73;6.03;;;;;;;12.19;89.22;101614.13;5099870;28;20088;-73
2023/04/10 08:54:32;;;;;;;7.85;6.65;;;;;;;12.32;87.28;101617.44;5116911;28;20059;-72
2023/04/10 08:57:00;;;;;;;8.30;6.03;;;;;;;12.37;85.82;101608.19;5117408;28;20039;-73
2023/04/10 08:59:28;;;;;;;10.02;6.50;;;;;;;12.27;83.31;101608.97;5117628;28;20163;-72
2023/04/10 09:01:55;;;;;;;7.57;6.10;;;;;;;12.21;84.76;101611.31;5117028;28;20090;-73
2023/04/10 09:04:20;;;;;;;7.97;6.03;;;;;;;12.26;88.23;101603.78;5118431;28;20035;-73
2023/04/10 09:06:45;;;;;;;7.70;6.00;;;;;;;12.28;87.10;101605.31;5118770;28;20055;-73
2023/04/10 09:09:11;;;;;;;7.57;5.95;;;;;;;12.26;85.29;101593.94;5120887;28;20487;-73
2023/04/10 09:11:54;;;;;;;7.05;5.93;;;;;;;12.22;82.33;101583.66;5120493;28;20043;-73
2023/04/10 09:14:27;;;;;;;6.90;5.93;;;;;;;12.23;84.17;101570.19;5120412;28;20081;-74
2023/04/10 09:17:09;;;;;;;7.40;6.05;;;;;;;12.33;86.09;101576.44;5120991;28;20047;-72
2023/04/10 09:19:34;;;;;;;;;;;;;;;12.30;82.98;101573.16;5121497;28;20031;-72
2023/04/10 09:22:00;;;;;;;7.88;5.63;;;;;;;12.40;85.49;101565.22;5120993;28;20449;-72
2023/04/10 09:24:26;;;;;;;8.48;6.22;;;;;;;12.35;82.73;101550.44;5120424;28;20042;-72
2023/04/10 09:26:52;;;;;;;8.55;5.95;;;;;;;12.29;85.38;101556.31;5101495;28;20122;-73
2023/04/10 09:29:17;;;;;;;7.90;6.10;;;;;;;12.29;89.98;101550.16;5119864;28;20027;-72
2023/04/10 09:31:43;;;;;;;9.85;6.45;;;;;;;12.27;92.60;101550.28;5119388;28;20520;-72
2023/04/10 09:34:21;;;;;;;7.00;5.97;;;;;;;12.18;89.44;101559.06;5117524;28;20054;-73
2023/04/10 09:36:57;;;;;;;7.00;6.13;;;;;;;12.25;91.57;101562.91;5116259;28;20085;-73
2023/04/10 09:39:39;;;;;;;10.05;6.07;;;;;;;12.44;90.64;101555.97;5116778;28;20036;-72
2023/04/10 09:42:05;;;;;;;7.15;5.80;;;;;;;12.62;84.93;101549.00;5116638;28;20039;-72
2023/04/10 09:44:36;;;;;;;7.50;5.88;;;;;;;12.57;82.16;101543.25;5099056;28;20031;-72
2023/04/10 09:47:21;;;;;;;8.23;6.43;;;;;;;12.66;82.83;101533.59;5116664;28;20415;-72
2023/04/10 09:49:59;;;;;;;9.18;6.50;;;;;;;13.05;78.93;101523.81;5115304;28;20050;-73
2023/04/10 09:52:30;;;;;;;11.68;7.43;;;;;;;13.50;74.98;101522.47;5115736;28;20031;-73
2023/04/10 09:55:01;;;;;;;12.70;8.18;;;;;;;13.84;71.06;101521.16;5115800;28;20050;-73
2023/04/10 09:57:28;;;;;;;12.50;8.85;;;;;;;14.13;71.22;101518.41;5097604;28;20077;-72
2023/04/10 09:59:57;;;;;;;12.80;9.27;;;;;;;14.10;69.30;101526.72;5097444;28;20418;-73
2023/04/10 10:02:25;;;;;;;15.57;9.38;;;;;;;14.21;69.37;101520.34;5116088;28;20035;-73
2023/04/10 10:04:51;;;;;;;15.20;9.70;;;;;;;14.73;65.36;101517.19;5115425;28;20039;-73
2023/04/10 10:07:21;;;;;;;15.52;9.07;;;;;;;14.84;66.28;101513.44;5116096;28;20354;-72
2023/04/10 10:09:49;;;;;;;18.85;8.98;;;;;;;14.83;64.31;101509.09;5096591;28;20039;-73
2023/04/10 10:12:49;;;;;;;14.73;9.30;;;;;;;14.55;66.17;101499.19;5115381;28;20122;-73
2023/04/10 10:15:35;;;;;;;10.18;7.68;;;;;;;14.70;66.14;101507.59;5114855;28;20448;-73
2023/04/10 10:18:18;;;;;;;12.48;8.75;;;;;;;14.55;66.94;101499.19;5115178;28;20028;-73
2023/04/10 10:20:45;;;;;;;13.43;8.30;;;;;;;14.81;65.85;101498.53;5114909;28;20502;-72
2023/04/10 10:23:12;;;;;;;16.90;8.32;;;;;;;14.78;65.07;101488.13;5115671;28;20055;-73
2023/04/10 10:25:38;;;;;;;11.93;8.48;;;;;;;14.99;68.19;101485.16;5114678;28;20120;-70
2023/04/10 10:28:04;;;;;;;12.32;8.73;;;;;;;14.93;66.14;101481.25;5115015;28;20035;-70
2023/04/10 10:30:33;;;;;;;11.93;7.97;;;;;;;14.66;65.46;101466.06;5114806;28;20127;-73
2023/04/10 10:33:01;;;;;;;13.68;7.00;;;;;;;14.62;68.31;101443.25;5114707;28;20411;-73
2023/04/10 10:35:29;;;;;;;13.82;8.32;;;;;;;14.53;65.97;101436.94;5114817;28;20038;-74
2023/04/10 10:37:57;;;;;;;13.25;7.60;;;;;;;14.66;68.46;101433.94;5114465;28;20080;-73
2023/04/10 10:40:31;;;;;;;15.10;6.85;;;;;;;14.95;67.43;101448.94;5114332;28;20044;-72
2023/04/10 10:43:26;;;;;;;9.05;7.20;;;;;;;15.15;64.12;101426.34;5096627;28;20546;-73
2023/04/10 10:45:56;;;;;;;11.57;7.22;;;;;;;15.60;65.60;101420.94;5115213;28;20070;-74
2023/04/10 10:48:21;;;;;;;8.50;6.43;;;;;;;15.65;63.60;101414.13;5115040;28;20091;-73
2023/04/10 10:50:59;;;;;;;8.45;6.03;;;;;;;16.22;63.14;101423.50;5114961;28;20480;-74
2023/04/10 10:53:43;;;;;;;7.57;6.03;;;;;;;16.37;61.06;101405.75;5114761;28;20055;-73
2023/04/10 10:56:19;;;;;;;8.70;6.25;;;;;;;16.34;61.33;101405.25;5096409;28;20048;-72
2023/04/10 10:59:02;;;;;;;7.28;5.47;;;;;;;15.91;60.48;101399.03;5114790;28;20055;-72
2023/04/10 11:01:27;;;;;;;5.80;4.70;;;;;;;15.88;62.00;101396.66;5113887;28;20075;-74
2023/04/10 11:03:53;;;;;;;5.63;5.03;;;;;;;15.90;61.27;101392.84;5114199;28;20128;-76
2023/04/10 11:06:20;;;;;;;7.40;5.00;;;;;;;16.19;62.60;101386.22;5114121;28;20080;-73
2023/04/10 11:08:52;;;;;;;6.70;5.00;;;;;;;16.56;61.96;101383.13;5096075;28;20043;-74
2023/04/10 11:11:22;;;;;;;7.10;4.90;;;;;;;16.54;58.86;101379.78;5114478;28;20488;-75
2023/04/10 11:13:56;;;;;;;5.72;4.60;;;;;;;16.21;60.09;101384.22;5113981;28;20031;-74
2023/04/10 11:16:23;;;;;;;5.70;5.10;;;;;;;15.88;62.32;101376.03;5095794;28;20031;-74
2023/04/10 11:18:49;;;;;;;5.35;4.70;;;;;;;15.77;62.07;101365.56;5114049;28;20072;-76